createdAt,value
2023-03-08T00:01:43.857Z,21.20
2023-03-08T00:04:13.551Z,21.30
2023-03-08T00:06:42.793Z,21.30
2023-03-08T00:09:12.110Z,21.30
2023-03-08T00:11:41.226Z,21.30
2023-03-08T00:14:10.344Z,21.40
2023-03-08T00:16:39.493Z,21.40
2023-03-08T00:19:08.600Z,21.50
2023-03-08T00:21:37.693Z,21.60
2023-03-08T00:24:07.192Z,21.60
2023-03-08T00:26:36.347Z,21.60
2023-03-08T00:29:05.788Z,21.70
2023-03-08T00:31:35.170Z,21.80
2023-03-08T00:34:04.376Z,21.80
2023-03-08T00:36:33.621Z,21.90
2023-03-08T00:39:02.851Z,21.90
2023-03-08T00:41:32.156Z,22.00
2023-03-08T00:44:01.344Z,22.10
2023-03-08T00:46:30.517Z,22.10
2023-03-08T00:49:00.773Z,22.20
2023-03-08T00:51:29.917Z,22.30
2023-03-08T00:53:59.013Z,22.30
2023-03-08T00:56:28.534Z,22.40
2023-03-08T00:58:57.634Z,22.50
2023-03-08T01:01:26.979Z,22.50
2023-03-08T01:03:56.543Z,22.60
2023-03-08T01:06:25.655Z,22.70
2023-03-08T01:08:54.787Z,22.80
2023-03-08T01:11:27.837Z,22.90
2023-03-08T01:13:57.984Z,22.90
2023-03-08T01:16:33.437Z,23.00
2023-03-08T01:19:31.769Z,23.10
2023-03-08T01:22:06.400Z,23.20
2023-03-08T01:24:38.781Z,23.30
2023-03-08T01:27:13.085Z,23.40
2023-03-08T01:29:51.267Z,23.40
2023-03-08T01:32:20.509Z,23.50
2023-03-08T01:34:55.569Z,23.60
2023-03-08T01:37:27.564Z,23.60
2023-03-08T01:40:01.758Z,23.70
2023-03-08T01:42:32.106Z,23.80
2023-03-08T01:45:07.959Z,23.80
2023-03-08T01:47:46.064Z,23.90
2023-03-08T01:50:20.579Z,23.90
2023-03-08T01:52:56.910Z,24.00
2023-03-08T01:55:26.284Z,24.10
2023-03-08T01:57:58.423Z,24.20
2023-03-08T02:00:29.142Z,24.30
2023-03-08T02:03:29.038Z,24.30
2023-03-08T02:05:59.266Z,24.50
2023-03-08T02:08:28.743Z,24.60
2023-03-08T02:11:00.471Z,24.60
2023-03-08T02:13:30.393Z,24.70
2023-03-08T02:16:03.652Z,24.80
2023-03-08T02:18:32.792Z,24.80
2023-03-08T02:21:03.053Z,24.90
2023-03-08T02:23:32.209Z,25.00
2023-03-08T02:26:06.565Z,25.00
2023-03-08T02:28:36.291Z,25.10
2023-03-08T02:31:05.454Z,25.10
2023-03-08T02:33:37.508Z,25.20
2023-03-08T02:36:09.375Z,25.30
2023-03-08T02:38:39.357Z,25.40
2023-03-08T02:41:08.783Z,25.50
2023-03-08T02:43:38.057Z,25.50
2023-03-08T02:46:07.422Z,25.60
2023-03-08T02:48:36.532Z,25.70
2023-03-08T02:51:05.715Z,25.70
2023-03-08T02:53:34.839Z,25.80
2023-03-08T02:56:03.946Z,25.90
2023-03-08T02:58:33.106Z,26.00
2023-03-08T03:01:02.363Z,26.00
2023-03-08T03:03:32.409Z,26.10
2023-03-08T03:06:01.964Z,26.20
2023-03-08T03:08:32.940Z,26.30
2023-03-08T03:11:02.107Z,26.40
2023-03-08T03:13:31.158Z,26.40
2023-03-08T03:16:00.349Z,26.50
2023-03-08T03:18:29.536Z,26.50
2023-03-08T03:21:06.579Z,26.60
2023-03-08T03:23:36.140Z,26.70
2023-03-08T03:26:16.332Z,26.80
2023-03-08T03:28:46.133Z,26.90
2023-03-08T03:31:22.359Z,27.00
2023-03-08T03:33:53.050Z,27.10
2023-03-08T03:36:24.263Z,27.10
2023-03-08T03:38:53.627Z,27.20
2023-03-08T03:41:25.193Z,27.30
2023-03-08T03:43:54.981Z,27.40
2023-03-08T03:46:24.246Z,27.50
2023-03-08T03:48:53.471Z,27.60
2023-03-08T03:51:24.684Z,27.60
2023-03-08T03:53:57.086Z,27.70
2023-03-08T03:56:28.819Z,27.80
2023-03-08T03:58:58.013Z,27.90
2023-03-08T04:01:35.620Z,28.00
2023-03-08T04:04:05.236Z,28.10
2023-03-08T04:06:36.721Z,28.20
2023-03-08T04:09:16.121Z,28.20
2023-03-08T04:11:45.692Z,28.30
2023-03-08T04:14:14.927Z,28.40
2023-03-08T04:16:44.149Z,28.50
2023-03-08T04:19:15.217Z,28.60
2023-03-08T04:21:44.427Z,28.70
2023-03-08T04:24:13.577Z,28.80
2023-03-08T04:26:42.688Z,28.90
2023-03-08T04:29:11.937Z,28.90
2023-03-08T04:31:41.166Z,29.00
2023-03-08T04:34:10.407Z,29.20
2023-03-08T04:36:39.672Z,29.30
2023-03-08T04:39:09.561Z,29.40
2023-03-08T04:41:38.686Z,29.50
2023-03-08T04:44:07.773Z,29.60
2023-03-08T04:46:36.926Z,29.70
2023-03-08T04:49:06.093Z,29.80
2023-03-08T04:51:35.264Z,29.90
2023-03-08T04:54:05.788Z,30.00
2023-03-08T04:56:34.915Z,30.10
2023-03-08T04:59:04.289Z,30.20
2023-03-08T05:01:33.473Z,30.40
2023-03-08T05:04:02.704Z,30.50
2023-03-08T05:06:31.790Z,30.60
2023-03-08T05:09:00.973Z,30.70
2023-03-08T05:11:31.451Z,30.90
2023-03-08T05:14:01.837Z,31.00
2023-03-08T05:16:31.124Z,31.10
2023-03-08T05:19:00.274Z,31.20
2023-03-08T05:21:29.520Z,31.30
2023-03-08T05:24:01.614Z,31.30
2023-03-08T05:26:30.794Z,31.40
2023-03-08T05:29:04.413Z,31.40
2023-03-08T05:31:34.108Z,31.50
2023-03-08T05:34:03.192Z,31.60
2023-03-08T05:36:32.327Z,31.70
2023-03-08T05:39:01.523Z,31.80
2023-03-08T05:41:31.025Z,31.90
2023-03-08T05:44:02.548Z,31.90
2023-03-08T05:46:32.123Z,31.90
2023-03-08T05:49:01.330Z,31.90
2023-03-08T05:51:30.477Z,31.90
2023-03-08T05:53:59.692Z,32.00
2023-03-08T05:56:28.822Z,32.10
2023-03-08T05:58:57.998Z,32.20
2023-03-08T06:01:29.399Z,32.30
2023-03-08T06:04:00.032Z,32.50
2023-03-08T06:06:30.012Z,32.50
2023-03-08T06:08:59.401Z,32.60
2023-03-08T06:11:28.748Z,32.60
2023-03-08T06:13:57.939Z,32.70
2023-03-08T06:16:27.089Z,32.80
2023-03-08T06:18:56.219Z,32.90
2023-03-08T06:21:25.447Z,32.90
2023-03-08T06:23:54.524Z,33.00
2023-03-08T06:26:23.823Z,33.10
2023-03-08T06:28:53.252Z,33.10
2023-03-08T06:31:22.439Z,33.10
2023-03-08T06:33:51.554Z,33.10
2023-03-08T06:36:23.187Z,33.20
2023-03-08T06:38:52.866Z,33.30
2023-03-08T06:41:22.915Z,33.30
2023-03-08T06:43:52.168Z,33.40
2023-03-08T06:46:21.798Z,33.50
2023-03-08T06:48:51.571Z,33.60
2023-03-08T06:51:21.042Z,33.70
2023-03-08T06:53:50.426Z,33.90
2023-03-08T06:56:20.209Z,33.90
2023-03-08T06:58:49.448Z,33.90
2023-03-08T07:01:18.678Z,33.90
2023-03-08T07:03:49.740Z,33.80
2023-03-08T07:06:18.819Z,33.80
2023-03-08T07:08:47.983Z,33.70
2023-03-08T07:11:17.164Z,33.80
2023-03-08T07:13:46.479Z,33.90
2023-03-08T07:16:17.222Z,33.90
2023-03-08T07:18:46.585Z,34.00
2023-03-08T07:21:15.760Z,34.10
2023-03-08T07:23:44.847Z,34.20
2023-03-08T07:26:14.671Z,34.20
2023-03-08T07:28:43.879Z,34.10
2023-03-08T07:31:13.950Z,34.20
2023-03-08T07:33:43.161Z,34.10
2023-03-08T07:36:12.390Z,34.10
2023-03-08T07:38:41.790Z,34.20
2023-03-08T07:41:11.515Z,34.20
2023-03-08T07:43:41.225Z,34.30
2023-03-08T07:46:10.563Z,34.30
2023-03-08T07:48:39.863Z,34.30
2023-03-08T07:51:11.405Z,34.30
2023-03-08T07:53:40.959Z,34.30
2023-03-08T07:56:10.671Z,34.30
2023-03-08T07:58:40.622Z,34.30
2023-03-08T08:01:15.624Z,34.40
2023-03-08T08:03:44.900Z,34.40
2023-03-08T08:06:14.215Z,34.30
2023-03-08T08:08:43.482Z,34.40
2023-03-08T08:11:18.446Z,34.30
2023-03-08T08:13:48.313Z,34.30
2023-03-08T08:16:20.210Z,34.30
2023-03-08T08:18:49.545Z,34.30
2023-03-08T08:21:18.993Z,34.30
2023-03-08T08:23:48.821Z,34.30
2023-03-08T08:26:23.534Z,34.40
2023-03-08T08:28:55.650Z,34.40
2023-03-08T08:31:31.944Z,34.40
2023-03-08T08:34:02.082Z,34.40
2023-03-08T08:36:31.408Z,34.40
2023-03-08T08:39:00.618Z,34.30
2023-03-08T08:41:30.655Z,34.30
2023-03-08T08:44:01.403Z,34.30
2023-03-08T08:46:31.965Z,34.30
2023-03-08T08:49:02.111Z,34.30
2023-03-08T08:51:31.353Z,34.30
2023-03-08T08:54:00.767Z,34.30
2023-03-08T08:56:31.410Z,34.20
2023-03-08T08:59:04.193Z,34.20
2023-03-08T09:01:36.678Z,34.20
2023-03-08T09:04:06.014Z,34.20
2023-03-08T09:06:35.260Z,34.20
2023-03-08T09:09:05.699Z,34.20
2023-03-08T09:11:39.861Z,34.20
2023-03-08T09:14:17.926Z,34.20
2023-03-08T09:16:47.140Z,34.20
2023-03-08T09:19:16.557Z,34.20
2023-03-08T09:21:46.344Z,34.20
2023-03-08T09:24:15.834Z,34.10
2023-03-08T09:26:45.039Z,34.10
2023-03-08T09:29:14.521Z,34.10
2023-03-08T09:31:45.156Z,34.10
2023-03-08T09:34:16.533Z,34.10
2023-03-08T09:36:46.267Z,34.10
2023-03-08T09:39:16.137Z,34.10
2023-03-08T09:41:56.852Z,34.10
2023-03-08T09:45:20.519Z,34.00
2023-03-08T09:47:53.754Z,34.00
2023-03-08T09:50:58.180Z,34.00
2023-03-08T09:53:59.034Z,34.00
2023-03-08T09:56:46.010Z,33.90
2023-03-08T09:59:42.043Z,33.90
2023-03-08T10:03:04.839Z,33.80
2023-03-08T10:06:02.055Z,33.80
2023-03-08T10:09:00.912Z,33.70
2023-03-08T10:11:54.271Z,33.70
2023-03-08T10:14:43.737Z,33.60
2023-03-08T10:17:26.981Z,33.50
2023-03-08T10:20:23.608Z,33.50
2023-03-08T10:23:23.540Z,33.40
2023-03-08T10:25:54.056Z,33.30
2023-03-08T10:28:27.503Z,33.20
2023-03-08T10:31:01.449Z,33.10
2023-03-08T10:33:37.864Z,33.10
2023-03-08T10:36:20.913Z,33.00
2023-03-08T10:39:23.168Z,32.90
2023-03-08T10:41:58.505Z,32.80
2023-03-08T10:45:23.142Z,32.70
2023-03-08T10:48:05.445Z,32.60
2023-03-08T10:50:38.731Z,32.50
2023-03-08T10:53:21.403Z,32.40
2023-03-08T10:55:54.042Z,32.30
2023-03-08T10:58:41.112Z,32.20
2023-03-08T11:01:33.643Z,32.10
2023-03-08T11:04:14.135Z,31.90
2023-03-08T11:06:43.761Z,31.80
2023-03-08T11:09:37.879Z,31.70
2023-03-08T11:12:07.447Z,31.50
2023-03-08T11:14:37.817Z,31.40
2023-03-08T11:17:40.257Z,31.30
2023-03-08T11:20:29.701Z,31.20
2023-03-08T11:23:30.637Z,31.10
2023-03-08T11:26:35.334Z,31.00
2023-03-08T11:29:24.533Z,30.90
2023-03-08T11:32:19.234Z,30.80
2023-03-08T11:35:28.050Z,30.60
2023-03-08T11:38:23.361Z,30.50
2023-03-08T11:41:19.610Z,30.40
2023-03-08T11:44:23.701Z,30.30
2023-03-08T11:47:34.153Z,30.20
2023-03-08T11:50:39.601Z,30.10
2023-03-08T11:53:49.008Z,30.00
2023-03-08T11:57:02.319Z,29.90
2023-03-08T11:59:38.779Z,29.80
2023-03-08T12:02:14.780Z,29.70
2023-03-08T12:05:05.433Z,29.70
2023-03-08T12:08:04.342Z,29.60
2023-03-08T12:10:58.389Z,29.50
2023-03-08T12:13:39.748Z,29.50
2023-03-08T12:16:46.281Z,29.40
2023-03-08T12:19:46.886Z,29.30
2023-03-08T12:22:40.198Z,29.20
2023-03-08T12:25:28.292Z,29.10
2023-03-08T12:28:15.639Z,29.10
2023-03-08T12:31:03.247Z,29.00
2023-03-08T12:33:34.428Z,29.00
2023-03-08T12:36:08.622Z,28.90
2023-03-08T12:38:46.793Z,28.80
2023-03-08T12:41:32.336Z,28.80
2023-03-08T12:44:26.751Z,28.80
2023-03-08T12:47:04.731Z,28.70
2023-03-08T12:49:48.209Z,28.70
2023-03-08T12:52:20.100Z,28.60
2023-03-08T12:55:27.858Z,28.60
2023-03-08T12:57:59.125Z,28.60
2023-03-08T13:00:39.494Z,28.50
2023-03-08T13:03:14.517Z,28.50
2023-03-08T13:05:48.236Z,28.40
2023-03-08T13:08:17.391Z,28.50
2023-03-08T13:11:04.378Z,28.40
2023-03-08T13:14:02.552Z,28.40
2023-03-08T13:16:37.128Z,28.30
2023-03-08T13:19:28.795Z,28.30
2023-03-08T13:22:47.399Z,28.30
2023-03-08T13:25:55.580Z,28.30
2023-03-08T13:28:46.252Z,28.30
2023-03-08T13:31:31.932Z,28.20
2023-03-08T13:34:02.053Z,28.20
2023-03-08T13:36:34.116Z,28.20
2023-03-08T13:39:22.416Z,28.10
2023-03-08T13:41:51.998Z,28.10
2023-03-08T13:44:27.950Z,28.00
2023-03-08T13:47:03.162Z,28.00
2023-03-08T13:49:38.190Z,27.90
2023-03-08T13:52:20.277Z,27.90
2023-03-08T13:54:56.380Z,27.90
2023-03-08T13:57:28.201Z,27.80
2023-03-08T14:00:02.117Z,27.80
2023-03-08T14:02:34.887Z,27.70
2023-03-08T14:05:04.185Z,27.70
2023-03-08T14:07:33.852Z,27.80
2023-03-08T14:10:03.027Z,27.80
2023-03-08T14:12:35.570Z,27.70
2023-03-08T14:15:07.181Z,27.70
2023-03-08T14:17:37.977Z,27.70
2023-03-08T14:20:27.344Z,27.70
2023-03-08T14:22:57.180Z,27.70
2023-03-08T14:25:33.229Z,27.70
2023-03-08T14:28:02.419Z,27.60
2023-03-08T14:30:33.294Z,27.60
2023-03-08T14:33:28.278Z,27.60
2023-03-08T14:36:02.555Z,27.50
2023-03-08T14:38:35.038Z,27.50
2023-03-08T14:41:07.339Z,27.40
2023-03-08T14:43:36.761Z,27.40
2023-03-08T14:46:10.457Z,27.40
2023-03-08T14:48:40.363Z,27.40
2023-03-08T14:51:30.192Z,27.40
2023-03-08T14:54:02.274Z,27.30
2023-03-08T14:56:33.195Z,27.30
2023-03-08T14:59:07.176Z,27.30
2023-03-08T15:01:40.529Z,27.30
2023-03-08T15:04:24.138Z,27.30
2023-03-08T15:06:55.946Z,27.20
2023-03-08T15:09:27.145Z,27.20
2023-03-08T15:12:00.822Z,27.20
2023-03-08T15:14:31.482Z,27.20
2023-03-08T15:17:00.647Z,27.20
2023-03-08T15:19:29.758Z,27.20
2023-03-08T15:21:59.004Z,27.10
2023-03-08T15:24:28.305Z,27.10
2023-03-08T15:26:58.223Z,27.10
2023-03-08T15:29:34.091Z,27.10
2023-03-08T15:32:03.890Z,27.10
2023-03-08T15:34:33.008Z,27.10
2023-03-08T15:37:02.170Z,27.00
2023-03-08T15:39:31.424Z,27.00
2023-03-08T15:42:01.528Z,27.00
2023-03-08T15:44:30.786Z,26.90
2023-03-08T15:47:00.196Z,26.80
2023-03-08T15:49:29.326Z,26.80
2023-03-08T15:51:58.548Z,26.80
2023-03-08T15:54:27.707Z,26.70
2023-03-08T15:56:56.806Z,26.70
2023-03-08T15:59:25.926Z,26.70
2023-03-08T16:01:55.107Z,26.60
2023-03-08T16:04:24.309Z,26.60
2023-03-08T16:06:53.381Z,26.60
2023-03-08T16:09:24.608Z,26.50
2023-03-08T16:11:53.785Z,26.50
2023-03-08T16:14:22.961Z,26.50
2023-03-08T16:16:52.126Z,26.40
2023-03-08T16:19:21.299Z,26.40
2023-03-08T16:21:52.642Z,26.40
2023-03-08T16:24:21.940Z,26.30
2023-03-08T16:26:51.145Z,26.30
2023-03-08T16:29:20.503Z,26.20
2023-03-08T16:31:50.058Z,26.20
2023-03-08T16:34:20.143Z,26.20
2023-03-08T16:36:49.401Z,26.20
2023-03-08T16:39:18.887Z,26.10
2023-03-08T16:41:48.459Z,26.10
2023-03-08T16:44:30.414Z,26.10
2023-03-08T16:46:59.603Z,26.00
2023-03-08T16:49:29.356Z,26.00
2023-03-08T16:51:58.986Z,26.00
2023-03-08T16:54:28.174Z,25.90
2023-03-08T16:56:58.694Z,25.90
2023-03-08T16:59:28.963Z,25.90
2023-03-08T17:01:58.058Z,25.80
2023-03-08T17:04:27.137Z,25.70
2023-03-08T17:06:56.990Z,25.70
2023-03-08T17:09:26.146Z,25.60
2023-03-08T17:11:55.309Z,25.60
2023-03-08T17:14:24.416Z,25.60
2023-03-08T17:16:53.726Z,25.60
2023-03-08T17:19:22.818Z,25.60
2023-03-08T17:21:53.721Z,25.60
2023-03-08T17:24:23.178Z,25.60
2023-03-08T17:26:54.041Z,25.50
2023-03-08T17:29:24.169Z,25.50
2023-03-08T17:31:54.063Z,25.50
2023-03-08T17:34:24.691Z,25.40
2023-03-08T17:36:54.461Z,25.40
2023-03-08T17:39:23.962Z,25.40
2023-03-08T17:41:53.449Z,25.40
2023-03-08T17:44:22.681Z,25.30
2023-03-08T17:46:51.864Z,25.40
2023-03-08T17:49:25.779Z,25.30
2023-03-08T17:51:55.842Z,25.30
2023-03-08T17:54:25.153Z,25.30
2023-03-08T17:56:54.340Z,25.30
2023-03-08T17:59:23.790Z,25.30
2023-03-08T18:01:53.015Z,25.30
2023-03-08T18:04:23.072Z,25.20
2023-03-08T18:06:52.334Z,25.20
2023-03-08T18:09:22.175Z,25.20
2023-03-08T18:11:51.392Z,25.20
2023-03-08T18:14:24.363Z,25.20
2023-03-08T18:16:57.691Z,25.20
2023-03-08T18:19:26.884Z,25.20
2023-03-08T18:21:58.303Z,25.20
2023-03-08T18:24:29.145Z,25.20
2023-03-08T18:26:59.123Z,25.20
2023-03-08T18:29:28.402Z,25.20
2023-03-08T18:31:57.578Z,25.20
2023-03-08T18:34:26.862Z,25.30
2023-03-08T18:37:00.790Z,25.20
2023-03-08T18:39:30.172Z,25.20
2023-03-08T18:42:01.611Z,25.20
2023-03-08T18:44:30.908Z,25.20
2023-03-08T18:47:00.556Z,25.10
2023-03-08T18:49:29.757Z,25.10
2023-03-08T18:51:59.728Z,25.10
2023-03-08T18:54:28.866Z,25.10
2023-03-08T18:56:59.197Z,25.10
2023-03-08T18:59:30.009Z,25.10
2023-03-08T19:01:59.125Z,25.00
2023-03-08T19:04:28.581Z,25.00
2023-03-08T19:06:57.715Z,25.00
2023-03-08T19:09:26.848Z,25.00
2023-03-08T19:11:55.896Z,25.00
2023-03-08T19:14:25.199Z,24.90
2023-03-08T19:16:54.301Z,24.90
2023-03-08T19:19:23.541Z,24.90
2023-03-08T19:21:52.728Z,24.80
2023-03-08T19:24:23.287Z,24.80
2023-03-08T19:26:54.191Z,24.80
2023-03-08T19:29:30.298Z,24.70
2023-03-08T19:32:09.058Z,24.60
2023-03-08T19:34:42.406Z,24.60
2023-03-08T19:37:14.336Z,24.50
2023-03-08T19:39:44.627Z,24.50
2023-03-08T19:42:17.331Z,24.40
2023-03-08T19:44:49.370Z,24.40
2023-03-08T19:47:19.401Z,24.30
2023-03-08T19:49:48.551Z,24.20
2023-03-08T19:52:17.753Z,24.20
2023-03-08T19:54:47.213Z,24.10
2023-03-08T19:57:16.409Z,24.10
2023-03-08T19:59:45.524Z,24.10
2023-03-08T20:02:15.368Z,24.00
2023-03-08T20:04:44.481Z,24.10
2023-03-08T20:07:13.640Z,24.00
2023-03-08T20:09:43.746Z,24.00
2023-03-08T20:12:12.862Z,24.00
2023-03-08T20:14:42.000Z,24.00
2023-03-08T20:17:11.104Z,24.00
2023-03-08T20:19:40.159Z,23.90
2023-03-08T20:22:09.285Z,23.90
2023-03-08T20:24:38.443Z,23.90
2023-03-08T20:27:07.550Z,23.90
2023-03-08T20:29:36.686Z,23.80
2023-03-08T20:32:06.036Z,23.80
2023-03-08T20:34:35.232Z,23.70
2023-03-08T20:37:04.389Z,23.70
2023-03-08T20:39:34.014Z,23.70
2023-03-08T20:42:03.193Z,23.60
2023-03-08T20:44:32.394Z,23.60
2023-03-08T20:47:02.374Z,23.60
2023-03-08T20:49:31.590Z,23.60
2023-03-08T20:52:00.799Z,23.50
2023-03-08T20:54:30.283Z,23.50
2023-03-08T20:57:02.602Z,23.50
2023-03-08T20:59:31.871Z,23.50
2023-03-08T21:02:01.122Z,23.50
2023-03-08T21:04:31.384Z,23.50
2023-03-08T21:07:01.152Z,23.50
2023-03-08T21:09:30.339Z,23.60
2023-03-08T21:11:59.567Z,23.60
2023-03-08T21:14:30.041Z,23.60
2023-03-08T21:16:59.180Z,23.60
2023-03-08T21:19:28.452Z,23.60
2023-03-08T21:21:57.635Z,23.70
2023-03-08T21:24:27.143Z,23.70
2023-03-08T21:26:56.373Z,23.70
2023-03-08T21:29:26.152Z,23.70
2023-03-08T21:31:56.491Z,23.70
2023-03-08T21:34:25.777Z,23.70
2023-03-08T21:36:55.102Z,23.70
2023-03-08T21:39:24.456Z,23.70
2023-03-08T21:41:56.437Z,23.70
2023-03-08T21:44:26.377Z,23.60
2023-03-08T21:46:56.474Z,23.60
2023-03-08T21:49:29.810Z,23.70
2023-03-08T21:52:00.429Z,23.60
2023-03-08T21:54:32.372Z,23.60
2023-03-08T21:57:01.866Z,23.60
2023-03-08T21:59:31.490Z,23.50
2023-03-08T22:02:00.764Z,23.50
2023-03-08T22:04:30.441Z,23.50
2023-03-08T22:06:59.709Z,23.40
2023-03-08T22:09:30.123Z,23.40
2023-03-08T22:12:00.254Z,23.40
2023-03-08T22:14:31.214Z,23.40
2023-03-08T22:17:02.298Z,23.30
2023-03-08T22:19:31.480Z,23.30
2023-03-08T22:22:01.711Z,23.30
2023-03-08T22:24:33.747Z,23.30
2023-03-08T22:27:05.481Z,23.30
2023-03-08T22:29:35.635Z,23.20
2023-03-08T22:32:06.487Z,23.20
2023-03-08T22:34:36.871Z,23.20
2023-03-08T22:37:07.148Z,23.20
2023-03-08T22:39:38.200Z,23.10
2023-03-08T22:42:07.905Z,23.10
2023-03-08T22:44:37.202Z,23.10
2023-03-08T22:47:06.880Z,23.10
2023-03-08T22:49:36.048Z,23.10
2023-03-08T22:52:06.100Z,23.00
2023-03-08T22:54:35.615Z,23.00
2023-03-08T22:57:05.996Z,23.00
2023-03-08T22:59:35.549Z,23.00
2023-03-08T23:02:05.496Z,22.90
2023-03-08T23:04:34.718Z,22.90
2023-03-08T23:07:03.957Z,22.90
2023-03-08T23:09:33.452Z,22.90
2023-03-08T23:12:05.608Z,22.90
2023-03-08T23:14:36.552Z,22.80
2023-03-08T23:17:05.772Z,22.80
2023-03-08T23:19:34.905Z,22.80
2023-03-08T23:22:04.704Z,22.80
2023-03-08T23:24:33.859Z,22.80
2023-03-08T23:27:04.657Z,22.80
2023-03-08T23:29:33.848Z,22.70
2023-03-08T23:32:03.268Z,22.70
2023-03-08T23:37:17.964Z,22.60
2023-03-08T23:39:47.170Z,22.60
2023-03-08T23:42:16.413Z,22.60
2023-03-08T23:44:45.684Z,22.50
2023-03-08T23:47:14.895Z,22.50
2023-03-08T23:49:44.095Z,22.50
2023-03-08T23:52:13.298Z,22.50
2023-03-08T23:54:42.640Z,22.50
2023-03-08T23:57:11.886Z,22.50
2023-03-08T23:59:41.246Z,22.50
